Time;durP1;ratioP1;P1;durP2;ratioP2;P2;SDS_P1;SDS_P2;PMS_P1;PMS_P2;Temp;Humidity;BMP_temperature;BMP_pressure;BME280_temperature;BME280_humidity;BME280_pressure;Samples;Min_cycle;Max_cycle;Signal;HPM_P1;HPM_P2
2021/12/24 00:01:40;;;;;;;21.95;13.13;;;5.30;99.90;;;;;;5095550;28;20387;-69
2021/12/24 00:04:09;;;;;;;26.00;13.00;;;5.20;99.90;;;;;;5113742;28;20051;-69
2021/12/24 00:06:35;;;;;;;23.90;12.82;;;5.00;99.90;;;;;;5117104;28;20050;-68
2021/12/24 00:09:03;;;;;;;22.60;12.30;;;5.50;99.90;;;;;;5117244;28;20051;-68
2021/12/24 00:11:28;;;;;;;22.98;12.50;;;5.30;99.90;;;;;;5099200;28;20395;-68
2021/12/24 00:13:54;;;;;;;26.83;12.25;;;5.10;99.90;;;;;;5099118;28;20058;-68
2021/12/24 00:16:24;;;;;;;25.85;12.90;;;5.10;99.90;;;;;;5117067;28;20043;-68
2021/12/24 00:19:14;;;;;;;24.10;12.20;;;5.60;99.90;;;;;;5098931;28;20126;-68
2021/12/24 00:35:35;;;;;;;23.45;11.73;;;5.80;99.90;;;;;;5099291;28;20471;-68
2021/12/24 00:38:07;;;;;;;26.45;12.27;;;5.60;99.90;;;;;;5116658;28;20051;-68
2021/12/24 00:40:36;;;;;;;23.63;11.85;;;5.60;99.90;;;;;;5117228;28;20096;-68
2021/12/24 00:43:02;;;;;;;25.23;12.48;;;5.40;99.90;;;;;;5117050;28;20058;-68
2021/12/24 00:45:32;;;;;;;20.90;12.10;;;5.30;99.90;;;;;;5116449;28;20052;-68
2021/12/24 00:47:59;;;;;;;23.60;11.68;;;5.20;99.90;;;;;;5081158;28;20559;-68
2021/12/24 00:50:29;;;;;;;24.50;11.68;;;5.30;99.90;;;;;;5116446;28;20047;-68
2021/12/24 00:53:01;;;;;;;23.95;12.13;;;5.60;99.90;;;;;;5116382;28;20052;-68
2021/12/24 00:55:30;;;;;;;22.48;11.18;;;5.50;99.90;;;;;;5098731;28;20130;-68
2021/12/24 00:57:58;;;;;;;20.02;11.15;;;5.40;99.90;;;;;;5116294;28;20048;-68
2021/12/24 01:00:34;;;;;;;22.45;10.95;;;5.70;99.90;;;;;;5116206;28;20403;-68
2021/12/24 01:03:01;;;;;;;23.70;11.80;;;5.50;99.90;;;;;;5116212;28;20040;-68
2021/12/24 01:05:29;;;;;;;22.45;11.05;;;5.70;99.90;;;;;;5115724;28;20487;-68
2021/12/24 01:07:55;;;;;;;20.55;10.98;;;5.70;99.90;;;;;;5098105;28;20051;-68
2021/12/24 01:10:25;;;;;;;21.73;11.13;;;5.90;99.90;;;;;;5116266;28;20047;-67
2021/12/24 01:12:51;;;;;;;21.38;11.40;;;5.40;99.90;;;;;;5097962;28;20052;-68
2021/12/24 01:15:18;;;;;;;23.60;11.60;;;5.10;99.90;;;;;;5115889;28;20152;-68
2021/12/24 01:20:58;;;;;;;20.98;10.32;;;5.50;99.90;;;;;;5032832;28;20049;-68
2021/12/24 01:26:19;;;;;;;17.38;9.88;;;5.80;99.90;;;;;;5077291;28;20062;-68
2021/12/24 01:45:20;;;;;;;18.13;9.57;;;5.80;99.90;;;;;;5097137;28;20554;-68
2021/12/24 01:47:46;;;;;;;15.77;9.07;;;5.70;99.90;;;;;;5115484;28;20039;-69
2021/12/24 01:50:14;;;;;;;17.50;8.95;;;5.70;99.90;;;;;;5115230;28;20051;-68
2021/12/24 01:52:40;;;;;;;13.25;7.75;;;5.50;99.90;;;;;;5115210;28;20510;-68
2021/12/24 01:55:07;;;;;;;15.65;7.95;;;5.50;99.90;;;;;;5096921;28;20126;-68
2021/12/24 01:57:34;;;;;;;13.60;7.93;;;5.50;99.90;;;;;;5097316;28;20051;-67
2021/12/24 02:00:03;;;;;;;15.13;7.30;;;5.60;99.90;;;;;;5115019;28;20035;-68
2021/12/24 02:02:30;;;;;;;16.23;8.60;;;5.70;99.90;;;;;;5096801;28;20044;-68
2021/12/24 02:04:55;;;;;;;14.15;8.70;;;5.80;99.90;;;;;;5114645;28;20522;-68
2021/12/24 02:07:21;;;;;;;16.38;8.02;;;5.80;99.90;;;;;;5114871;28;20048;-68
2021/12/24 02:09:47;;;;;;;15.48;8.00;;;6.00;99.90;;;;;;5114866;28;20043;-68
2021/12/24 02:12:15;;;;;;;19.08;8.65;;;6.10;99.90;;;;;;5115033;28;20087;-68
2021/12/24 02:14:43;;;;;;;13.50;7.05;;;6.20;99.90;;;;;;5114649;28;20044;-68
2021/12/24 02:30:44;;;;;;;9.95;5.10;;;5.80;99.90;;;;;;5096788;28;20100;-68
2021/12/24 02:33:10;;;;;;;8.85;5.00;;;6.10;99.90;;;;;;5096540;28;20085;-68
2021/12/24 02:35:36;;;;;;;9.52;4.72;;;6.50;99.90;;;;;;5096400;28;20039;-68
2021/12/24 02:38:04;;;;;;;7.53;4.85;;;6.20;99.90;;;;;;5114383;28;20051;-68
2021/12/24 02:40:32;;;;;;;9.35;5.40;;;6.00;99.90;;;;;;5114357;28;20047;-68
2021/12/24 02:42:59;;;;;;;8.00;4.70;;;6.10;99.90;;;;;;5113891;28;20039;-68
2021/12/24 02:45:26;;;;;;;7.82;4.85;;;6.50;99.90;;;;;;5096207;28;20055;-68
2021/12/24 02:56:05;;;;;;;8.32;4.95;;;6.00;99.90;;;;;;5114349;28;20503;-68
2021/12/24 02:58:43;;;;;;;11.10;4.82;;;6.70;99.90;;;;;;5114087;28;20062;-69
2021/12/24 03:01:11;;;;;;;7.93;4.97;;;6.40;99.90;;;;;;5095920;28;20048;-68
2021/12/24 03:03:37;;;;;;;7.95;5.07;;;6.30;99.90;;;;;;5096128;28;20051;-68
2021/12/24 03:06:04;;;;;;;11.05;5.20;;;6.80;99.90;;;;;;5113919;28;20055;-68
2021/12/24 03:08:30;;;;;;;7.55;4.75;;;6.50;99.90;;;;;;5114035;28;20494;-68
2021/12/24 03:10:58;;;;;;;8.80;5.25;;;6.50;99.90;;;;;;5113858;28;20047;-68
2021/12/24 03:13:25;;;;;;;9.52;5.65;;;6.20;99.90;;;;;;5113922;28;20406;-68
2021/12/24 03:15:53;;;;;;;10.00;5.38;;;7.00;99.90;;;;;;5113890;28;20091;-68
2021/12/24 03:18:24;;;;;;;8.98;5.05;;;6.40;99.90;;;;;;5113947;28;20060;-68
2021/12/24 03:20:57;;;;;;;8.90;5.95;;;6.70;99.90;;;;;;5114447;28;20047;-68
2021/12/24 03:23:35;;;;;;;8.27;5.10;;;6.80;99.90;;;;;;5096771;28;20525;-68
2021/12/24 03:26:01;;;;;;;10.82;5.38;;;6.30;99.90;;;;;;5095368;28;20059;-69
2021/12/24 03:28:27;;;;;;;8.30;4.95;;;6.60;99.90;;;;;;5113723;28;20072;-68
2021/12/24 03:30:53;;;;;;;9.43;4.63;;;6.50;99.90;;;;;;5113763;28;20040;-69
2021/12/24 03:33:19;;;;;;;7.57;4.50;;;6.50;99.90;;;;;;5096186;28;20040;-68
2021/12/24 03:35:44;;;;;;;9.75;4.72;;;7.10;99.90;;;;;;5113671;28;20044;-68
2021/12/24 03:38:10;;;;;;;8.27;4.85;;;6.90;99.90;;;;;;5114041;28;20067;-68
2021/12/24 03:40:36;;;;;;;8.35;4.88;;;6.60;99.90;;;;;;5116902;28;20039;-68
2021/12/24 03:43:02;;;;;;;10.27;5.15;;;6.80;99.90;;;;;;5118163;28;20051;-69
2021/12/24 03:45:35;;;;;;;8.07;4.53;;;6.80;99.90;;;;;;5117615;28;20545;-68
2021/12/24 03:48:13;;;;;;;10.75;5.10;;;6.50;99.90;;;;;;5118261;28;20051;-68
2021/12/24 03:50:57;;;;;;;8.52;4.88;;;6.40;99.90;;;;;;5100505;28;20056;-68
2021/12/24 03:56:07;;;;;;;8.77;4.80;;;6.80;99.90;;;;;;5102678;28;20379;-69
2021/12/24 03:58:33;;;;;;;8.88;5.40;;;6.80;99.90;;;;;;5117452;28;20130;-68
2021/12/24 04:00:59;;;;;;;11.70;5.65;;;6.70;99.90;;;;;;5117939;28;20083;-68
2021/12/24 04:03:24;;;;;;;10.43;5.50;;;6.80;99.90;;;;;;5118209;28;20043;-67
2021/12/24 04:05:50;;;;;;;11.82;5.45;;;6.90;99.90;;;;;;5117369;28;20394;-68
2021/12/24 04:08:16;;;;;;;13.75;5.55;;;7.10;99.90;;;;;;5118197;28;20040;-68
2021/12/24 04:10:42;;;;;;;12.63;6.15;;;7.10;99.90;;;;;;5117268;28;20426;-68
2021/12/24 04:13:09;;;;;;;17.13;6.60;;;7.00;99.90;;;;;;5099154;28;20044;-68
2021/12/24 04:15:36;;;;;;;17.45;7.03;;;7.00;99.90;;;;;;5117178;28;20047;-68
2021/12/24 04:18:13;;;;;;;19.25;7.63;;;7.20;99.90;;;;;;5117319;28;20378;-68
2021/12/24 04:26:07;;;;;;;18.70;7.13;;;7.10;99.90;;;;;;5117285;28;20055;-68
2021/12/24 04:28:33;;;;;;;24.02;8.80;;;7.30;99.90;;;;;;5117381;28;20058;-68
2021/12/24 04:31:00;;;;;;;24.63;8.32;;;6.90;99.90;;;;;;5117637;28;20150;-68
2021/12/24 04:33:35;;;;;;;19.10;7.93;;;7.10;99.90;;;;;;5116774;28;20044;-68
2021/12/24 04:52:54;;;;;;;20.08;8.45;;;7.40;99.90;;;;;;5115899;28;20051;-68
2021/12/24 05:03:37;;;;;;;22.70;8.80;;;7.70;99.90;;;;;;5116307;28;20059;-68
2021/12/24 05:06:25;;;;;;;20.77;8.82;;;7.20;99.90;;;;;;5116046;28;20080;-68
2021/12/24 05:08:54;;;;;;;23.25;9.40;;;7.40;99.90;;;;;;5116521;28;20047;-68
2021/12/24 05:11:21;;;;;;;23.85;8.65;;;7.80;99.90;;;;;;5115976;28;20056;-69
2021/12/24 05:13:48;;;;;;;23.85;9.35;;;7.50;99.90;;;;;;5115959;28;20044;-68
2021/12/24 05:24:05;;;;;;;21.75;10.55;;;7.60;99.90;;;;;;5116387;28;20493;-68
2021/12/24 05:26:32;;;;;;;25.20;10.18;;;7.70;99.90;;;;;;5115777;28;20480;-68
2021/12/24 05:28:58;;;;;;;24.45;11.07;;;7.80;99.90;;;;;;5115484;28;20508;-67
2021/12/24 05:31:25;;;;;;;24.05;11.32;;;8.10;99.90;;;;;;5115746;28;20062;-68
2021/12/24 05:33:51;;;;;;;20.90;10.50;;;8.10;99.90;;;;;;5115661;28;20044;-69
2021/12/24 05:36:17;;;;;;;22.88;11.15;;;8.10;99.90;;;;;;5115560;28;20082;-69
2021/12/24 05:38:43;;;;;;;24.05;11.30;;;8.30;99.90;;;;;;5115451;28;20544;-69
2021/12/24 05:41:10;;;;;;;23.83;11.35;;;8.10;99.90;;;;;;5116201;28;20043;-68
2021/12/24 05:43:36;;;;;;;28.55;13.10;;;8.00;99.90;;;;;;5115994;28;20130;-68
2021/12/24 05:46:02;;;;;;;30.48;12.32;;;7.70;99.90;;;;;;5115077;28;20475;-68
2021/12/24 05:48:28;;;;;;;29.92;11.93;;;8.30;99.90;;;;;;5115376;28;20131;-68
2021/12/24 05:50:54;;;;;;;25.58;12.43;;;8.40;99.90;;;;;;5115371;28;20048;-68
2021/12/24 05:53:20;;;;;;;24.95;12.07;;;8.50;99.90;;;;;;5115033;28;20043;-67
2021/12/24 05:55:45;;;;;;;23.85;12.13;;;8.10;99.90;;;;;;5115238;28;20040;-68
2021/12/24 05:58:12;;;;;;;31.95;13.30;;;8.20;99.90;;;;;;5115141;28;20134;-68
2021/12/24 06:00:39;;;;;;;26.40;12.90;;;8.10;99.90;;;;;;5096943;28;20044;-69
2021/12/24 06:03:06;;;;;;;27.20;13.52;;;8.10;99.90;;;;;;5114845;28;20069;-69
2021/12/24 06:05:34;;;;;;;29.48;14.50;;;8.00;99.90;;;;;;5114981;28;20097;-68
2021/12/24 06:08:00;;;;;;;26.35;14.07;;;8.40;99.90;;;;;;5115876;28;20090;-68
2021/12/24 06:10:26;;;;;;;29.10;14.38;;;8.30;99.90;;;;;;5115376;28;20075;-68
2021/12/24 06:12:52;;;;;;;31.92;14.15;;;8.10;99.90;;;;;;5115611;28;20051;-67
2021/12/24 06:15:23;;;;;;;35.33;14.75;;;8.10;99.90;;;;;;5080454;28;20039;-69
2021/12/24 06:17:51;;;;;;;31.42;14.63;;;7.90;99.90;;;;;;5115394;28;20040;-68
2021/12/24 06:20:17;;;;;;;36.92;14.98;;;8.40;99.90;;;;;;5114901;28;20475;-69
2021/12/24 06:22:43;;;;;;;34.38;14.70;;;8.40;99.90;;;;;;5096506;28;20101;-69
2021/12/24 06:25:09;;;;;;;27.08;13.95;;;8.10;99.90;;;;;;5114525;28;20063;-69
2021/12/24 06:27:35;;;;;;;30.30;14.02;;;8.10;99.90;;;;;;5114471;28;20059;-69
2021/12/24 06:30:00;;;;;;;26.75;12.98;;;8.10;99.90;;;;;;5114554;28;20156;-68
2021/12/24 06:32:26;;;;;;;32.22;13.02;;;8.40;99.90;;;;;;5114491;28;20048;-68
2021/12/24 06:34:52;;;;;;;23.33;11.35;;;8.20;99.90;;;;;;5114389;28;20376;-68
2021/12/24 06:37:18;;;;;;;25.42;12.25;;;8.00;99.90;;;;;;5114907;28;20043;-68
2021/12/24 06:39:44;;;;;;;27.90;12.70;;;8.10;99.90;;;;;;5114488;28;20100;-69
2021/12/24 06:42:09;;;;;;;23.85;11.50;;;8.10;99.90;;;;;;5114995;28;20039;-68
2021/12/24 06:44:35;;;;;;;25.60;11.85;;;8.10;99.90;;;;;;5096172;28;20490;-67
2021/12/24 06:47:01;;;;;;;25.63;11.10;;;7.90;99.90;;;;;;5096095;28;20052;-68
2021/12/24 06:49:27;;;;;;;24.20;10.20;;;8.40;99.90;;;;;;5114242;28;20192;-67
2021/12/24 06:51:53;;;;;;;25.98;10.48;;;8.40;99.90;;;;;;5096340;28;20433;-68
2021/12/24 06:54:19;;;;;;;29.02;10.50;;;8.10;99.90;;;;;;5114206;28;20097;-67
2021/12/24 06:56:45;;;;;;;22.27;9.63;;;8.40;99.90;;;;;;5114655;28;20039;-67
2021/12/24 06:59:11;;;;;;;24.58;9.23;;;8.10;99.90;;;;;;5096044;28;20039;-68
2021/12/24 07:01:36;;;;;;;21.23;8.38;;;8.20;99.90;;;;;;5114206;28;20130;-68
2021/12/24 07:04:02;;;;;;;21.85;7.93;;;8.10;99.90;;;;;;5114334;28;20036;-68
2021/12/24 07:06:28;;;;;;;23.52;8.68;;;8.30;99.90;;;;;;5113959;28;20479;-68
2021/12/24 07:08:55;;;;;;;21.17;7.65;;;7.90;99.90;;;;;;5114110;28;20093;-68
2021/12/24 07:11:21;;;;;;;22.13;8.63;;;8.40;99.90;;;;;;5113850;28;20059;-68
2021/12/24 07:13:47;;;;;;;21.38;7.60;;;8.00;99.90;;;;;;5114345;28;20039;-67
2021/12/24 07:16:12;;;;;;;21.48;8.00;;;8.60;99.90;;;;;;5120852;28;20070;-68
2021/12/24 07:18:38;;;;;;;20.10;7.35;;;8.10;99.90;;;;;;5120987;28;20046;-67
2021/12/24 07:21:05;;;;;;;20.23;7.00;;;8.10;99.90;;;;;;5121504;28;20052;-67
2021/12/24 07:23:31;;;;;;;15.80;5.75;;;8.30;99.90;;;;;;5120685;28;20186;-68
2021/12/24 07:25:56;;;;;;;19.27;7.20;;;8.10;99.90;;;;;;5120581;28;20134;-69
2021/12/24 07:28:22;;;;;;;14.43;6.03;;;8.10;99.90;;;;;;5121151;28;20132;-68
2021/12/24 07:30:48;;;;;;;22.38;7.57;;;8.30;99.90;;;;;;5120588;28;20055;-68
2021/12/24 07:33:14;;;;;;;14.63;7.30;;;8.10;99.90;;;;;;5120590;28;20052;-68
2021/12/24 07:35:44;;;;;;;20.20;7.32;;;8.10;99.90;;;;;;5120607;28;20128;-68
2021/12/24 07:38:13;;;;;;;24.65;8.52;;;8.50;99.90;;;;;;5120505;28;20039;-68
2021/12/24 07:40:41;;;;;;;17.10;7.53;;;7.70;99.90;;;;;;5120519;28;20100;-68
2021/12/24 07:43:06;;;;;;;19.60;7.13;;;8.40;99.90;;;;;;5120381;28;20441;-69
2021/12/24 07:45:32;;;;;;;11.45;5.18;;;8.30;99.90;;;;;;5120457;28;20050;-69
2021/12/24 07:48:12;;;;;;;11.10;4.60;;;8.20;99.90;;;;;;5121191;28;20127;-68
2021/12/24 07:53:09;;;;;;;4.63;2.25;;;8.00;99.90;;;;;;5120380;28;20052;-68
2021/12/24 07:55:36;;;;;;;3.97;2.03;;;8.40;99.90;;;;;;5120414;28;20078;-68
2021/12/24 07:58:02;;;;;;;4.93;2.03;;;8.00;99.90;;;;;;5120417;28;20074;-68
2021/12/24 08:00:28;;;;;;;6.15;1.70;;;7.60;99.90;;;;;;5102207;28;20127;-69
2021/12/24 08:02:55;;;;;;;3.55;1.58;;;7.70;99.90;;;;;;5120349;28;20499;-68
2021/12/24 08:05:23;;;;;;;3.28;1.33;;;7.90;99.90;;;;;;5120280;28;20047;-68
2021/12/24 08:07:51;;;;;;;3.88;1.67;;;7.60;99.90;;;;;;5120196;28;20050;-67
2021/12/24 08:10:17;;;;;;;3.83;1.52;;;7.90;99.90;;;;;;5120270;28;20062;-67
2021/12/24 08:12:43;;;;;;;4.38;1.60;;;7.90;99.90;;;;;;5120149;28;20380;-68
2021/12/24 08:15:09;;;;;;;3.47;1.30;;;7.50;99.90;;;;;;5120196;28;20040;-68
2021/12/24 08:17:35;;;;;;;2.90;1.42;;;7.40;99.90;;;;;;5102569;28;20097;-68
2021/12/24 08:20:01;;;;;;;2.85;1.40;;;7.50;99.90;;;;;;5103028;28;20092;-68
2021/12/24 08:22:27;;;;;;;5.25;1.85;;;7.60;99.90;;;;;;5120129;28;20058;-68
2021/12/24 08:24:53;;;;;;;4.93;2.20;;;7.30;99.90;;;;;;5102269;28;20044;-68
2021/12/24 08:27:21;;;;;;;4.90;2.20;;;8.00;99.90;;;;;;5066284;28;20047;-68
2021/12/24 08:29:47;;;;;;;5.75;2.00;;;7.90;99.90;;;;;;5116962;28;20052;-67
2021/12/24 08:32:13;;;;;;;2.10;1.10;;;7.70;99.90;;;;;;5117675;28;20044;-69
2021/12/24 08:34:39;;;;;;;1.60;1.00;;;7.80;99.90;;;;;;5116784;28;20373;-69
2021/12/24 08:37:05;;;;;;;2.58;1.30;;;7.40;99.90;;;;;;5116708;28;20036;-68
2021/12/24 08:39:32;;;;;;;2.15;1.40;;;7.40;99.90;;;;;;5117461;28;20040;-68
2021/12/24 08:41:58;;;;;;;2.47;1.60;;;7.60;99.90;;;;;;5116519;28;20043;-68
2021/12/24 08:44:28;;;;;;;3.70;1.58;;;7.40;99.90;;;;;;5116652;28;20048;-68
2021/12/24 08:46:54;;;;;;;4.90;1.67;;;7.50;99.90;;;;;;5116584;28;20112;-68
2021/12/24 08:49:20;;;;;;;2.10;1.20;;;7.80;99.90;;;;;;5117171;28;20122;-68
2021/12/24 08:51:51;;;;;;;3.08;1.73;;;7.50;99.90;;;;;;5116556;28;20044;-68
2021/12/24 08:54:17;;;;;;;2.25;1.08;;;7.30;99.90;;;;;;5099343;28;20368;-70
2021/12/24 08:56:43;;;;;;;2.25;1.40;;;6.90;99.90;;;;;;5116489;28;20040;-70
2021/12/24 08:59:09;;;;;;;1.98;1.17;;;7.40;99.90;;;;;;5116131;28;20101;-71
2021/12/24 09:01:35;;;;;;;3.45;2.00;;;7.10;99.90;;;;;;5116413;28;20066;-72
2021/12/24 09:04:01;;;;;;;4.35;1.77;;;7.30;99.90;;;;;;5116405;28;20486;-71
2021/12/24 09:06:28;;;;;;;3.20;1.75;;;6.90;99.90;;;;;;5116292;28;20123;-71
2021/12/24 09:08:53;;;;;;;2.58;1.70;;;7.20;99.90;;;;;;5097993;28;20052;-71
2021/12/24 09:11:19;;;;;;;4.43;1.88;;;7.20;99.90;;;;;;5116141;28;20039;-72
2021/12/24 09:13:45;;;;;;;3.25;1.63;;;6.90;99.90;;;;;;5116493;28;20541;-71
2021/12/24 09:16:11;;;;;;;2.83;1.50;;;7.00;99.90;;;;;;5116117;28;20044;-70
2021/12/24 09:18:40;;;;;;;2.40;1.38;;;7.00;99.90;;;;;;5098181;28;20421;-69
2021/12/24 09:21:14;;;;;;;3.47;1.52;;;7.40;99.90;;;;;;5116021;28;20464;-73
2021/12/24 09:23:39;;;;;;;2.15;1.33;;;7.30;99.90;;;;;;5116120;28;20097;-70
2021/12/24 09:26:05;;;;;;;2.05;1.50;;;7.00;99.90;;;;;;5097720;28;20055;-70
2021/12/24 09:28:32;;;;;;;2.33;1.23;;;7.40;99.90;;;;;;5098319;28;20087;-72
2021/12/24 09:30:57;;;;;;;4.30;2.20;;;6.70;99.90;;;;;;5097887;28;20520;-70
2021/12/24 09:33:23;;;;;;;6.40;3.72;;;7.50;99.90;;;;;;5115453;28;20043;-70
2021/12/24 09:35:49;;;;;;;3.50;2.08;;;7.00;99.90;;;;;;5115785;28;20054;-70
2021/12/24 09:38:14;;;;;;;4.13;2.08;;;7.10;99.90;;;;;;5115176;28;20044;-70
2021/12/24 09:40:40;;;;;;;3.90;2.10;;;7.50;99.90;;;;;;5115666;28;20437;-71
2021/12/24 09:43:06;;;;;;;3.95;1.98;;;7.30;99.90;;;;;;5116107;28;20539;-69
2021/12/24 09:45:32;;;;;;;5.45;2.30;;;6.80;99.90;;;;;;5113700;28;20142;-69
2021/12/24 09:47:57;;;;;;;3.53;2.13;;;6.80;99.90;;;;;;5113502;28;20035;-70
2021/12/24 09:50:25;;;;;;;4.97;2.67;;;7.50;99.90;;;;;;5097367;28;20471;-71
2021/12/24 09:52:51;;;;;;;3.22;1.65;;;7.50;99.90;;;;;;5115489;28;20048;-70
2021/12/24 09:55:20;;;;;;;4.55;2.67;;;6.90;99.90;;;;;;5115419;28;20494;-70
2021/12/24 09:57:46;;;;;;;3.15;1.77;;;7.50;99.90;;;;;;5115215;28;20047;-70
2021/12/24 10:00:15;;;;;;;4.38;2.10;;;6.50;99.90;;;;;;5097381;28;20491;-70
2021/12/24 10:02:46;;;;;;;2.83;1.63;;;6.70;99.90;;;;;;5115897;28;20500;-71
2021/12/24 10:05:33;;;;;;;3.45;1.73;;;6.80;99.90;;;;;;5097851;28;20056;-70
2021/12/24 10:08:07;;;;;;;4.20;2.20;;;6.70;99.90;;;;;;5113083;28;20502;-74
2021/12/24 10:10:34;;;;;;;4.97;2.40;;;6.40;99.90;;;;;;5095036;28;20130;-71
2021/12/24 10:13:39;;;;;;;6.57;3.25;;;6.40;99.90;;;;;;5112617;28;20058;-71
2021/12/24 10:16:16;;;;;;;5.30;2.88;;;6.40;99.90;;;;;;5112170;28;20491;-70
2021/12/24 10:18:44;;;;;;;7.03;3.63;;;6.80;99.90;;;;;;5095122;28;20413;-72
2021/12/24 10:21:14;;;;;;;9.52;4.32;;;6.30;99.90;;;;;;5112348;28;20048;-72
2021/12/24 10:23:45;;;;;;;6.97;3.88;;;6.70;99.90;;;;;;5112536;28;20083;-72
2021/12/24 10:26:15;;;;;;;9.90;3.60;;;6.30;99.90;;;;;;5112427;28;20125;-71
2021/12/24 10:29:05;;;;;;;6.68;3.47;;;5.50;99.90;;;;;;5112416;28;20059;-71
2021/12/24 10:31:52;;;;;;;5.32;3.05;;;6.00;99.90;;;;;;5101964;28;20055;-72
2021/12/24 10:34:17;;;;;;;6.97;3.45;;;6.20;99.90;;;;;;5112263;28;20051;-71
2021/12/24 10:37:23;;;;;;;6.75;3.25;;;6.80;99.90;;;;;;5112346;28;20040;-71
2021/12/24 10:40:00;;;;;;;8.23;3.53;;;6.50;99.90;;;;;;5094143;28;20047;-72
2021/12/24 10:42:32;;;;;;;4.80;3.33;;;7.20;99.90;;;;;;5111321;28;20483;-72
2021/12/24 10:44:59;;;;;;;6.38;3.88;;;6.50;99.90;;;;;;5111575;28;20052;-71
2021/12/24 10:47:38;;;;;;;4.55;3.08;;;6.50;99.90;;;;;;5111282;28;20047;-72
2021/12/24 10:55:13;;;;;;;8.50;4.10;;;6.00;99.90;;;;;;5095165;28;20055;-72
2021/12/24 10:57:47;;;;;;;6.88;3.95;;;6.70;99.90;;;;;;5111239;28;20521;-72
2021/12/24 11:00:28;;;;;;;7.32;4.05;;;6.40;99.90;;;;;;5094622;28;20044;-71
2021/12/24 11:03:00;;;;;;;7.13;4.50;;;6.00;99.90;;;;;;5112425;28;20047;-71
2021/12/24 11:05:38;;;;;;;5.40;3.38;;;5.90;99.90;;;;;;5112618;28;20062;-72
2021/12/24 11:08:16;;;;;;;6.50;4.35;;;6.80;99.90;;;;;;5111686;28;20047;-72
2021/12/24 11:10:46;;;;;;;6.22;3.67;;;6.00;99.90;;;;;;5112040;28;20356;-72
2021/12/24 11:13:15;;;;;;;6.55;4.00;;;6.40;99.90;;;;;;5112763;28;20051;-71
2021/12/24 11:15:48;;;;;;;7.30;4.32;;;6.00;99.90;;;;;;5114101;28;20047;-75
2021/12/24 11:18:26;;;;;;;8.30;4.90;;;6.00;99.90;;;;;;5114965;28;20104;-70
2021/12/24 11:20:57;;;;;;;7.97;4.50;;;6.00;99.90;;;;;;5114419;28;20047;-69
2021/12/24 11:23:28;;;;;;;7.55;3.80;;;6.00;99.90;;;;;;5114128;28;20044;-70
2021/12/24 11:26:03;;;;;;;7.30;4.28;;;6.10;99.90;;;;;;5113593;28;20105;-67
2021/12/24 11:28:31;;;;;;;7.32;4.30;;;5.90;99.90;;;;;;5095882;28;20059;-79
2021/12/24 11:31:03;;;;;;;6.53;4.22;;;6.00;99.90;;;;;;5096673;28;20139;-72
2021/12/24 11:33:31;;;;;;;6.00;4.32;;;5.90;99.90;;;;;;5114340;28;20039;-73
2021/12/24 11:35:58;;;;;;;7.05;4.03;;;6.40;99.90;;;;;;5114534;28;20089;-70
2021/12/24 11:38:38;;;;;;;4.65;3.30;;;5.90;99.90;;;;;;5096009;28;20475;-75
2021/12/24 11:41:06;;;;;;;7.70;3.95;;;6.30;99.90;;;;;;5114005;28;20043;-74
2021/12/24 11:43:37;;;;;;;6.15;3.45;;;6.00;99.90;;;;;;5113794;28;20130;-74
2021/12/24 11:46:06;;;;;;;6.47;3.97;;;5.60;99.90;;;;;;5113819;28;20047;-74
2021/12/24 11:48:33;;;;;;;5.68;3.67;;;6.30;99.90;;;;;;5113826;28;20051;-74
2021/12/24 11:51:09;;;;;;;4.00;2.80;;;6.80;99.90;;;;;;5113799;28;20083;-74
2021/12/24 11:53:36;;;;;;;3.60;2.53;;;6.50;99.90;;;;;;5096716;28;20413;-74
2021/12/24 11:56:07;;;;;;;4.75;3.22;;;6.40;99.90;;;;;;5113449;28;20491;-74
2021/12/24 11:58:45;;;;;;;3.50;2.65;;;6.20;99.90;;;;;;5096088;28;20096;-73
2021/12/24 12:01:14;;;;;;;4.97;2.53;;;6.10;99.90;;;;;;5116226;28;20210;-74
2021/12/24 12:03:40;;;;;;;7.00;4.68;;;6.80;99.90;;;;;;5117616;28;20044;-74
2021/12/24 12:06:10;;;;;;;5.53;3.38;;;6.30;99.90;;;;;;5099395;28;20052;-74
2021/12/24 12:08:41;;;;;;;5.78;3.10;;;5.90;99.90;;;;;;5117794;28;20050;-74
2021/12/24 12:11:19;;;;;;;5.38;3.20;;;6.10;99.90;;;;;;5118324;28;20043;-74
2021/12/24 12:13:50;;;;;;;4.13;2.67;;;5.90;99.90;;;;;;5117336;28;20092;-75
2021/12/24 12:16:20;;;;;;;5.13;2.65;;;5.80;99.90;;;;;;5100182;28;20051;-74
2021/12/24 12:19:04;;;;;;;6.90;3.47;;;6.20;99.90;;;;;;5117231;28;20503;-75
2021/12/24 12:21:44;;;;;;;4.20;2.35;;;5.70;99.90;;;;;;5117923;28;20050;-78
2021/12/24 12:26:44;;;;;;;9.55;3.97;;;5.80;99.90;;;;;;5117588;28;20407;-75
2021/12/24 12:29:18;;;;;;;4.55;2.65;;;5.80;99.90;;;;;;5082568;28;20043;-76
2021/12/24 12:31:44;;;;;;;4.28;3.03;;;6.80;99.90;;;;;;5117047;28;20047;-73
2021/12/24 12:34:38;;;;;;;4.05;2.30;;;6.10;99.90;;;;;;5117014;28;20051;-76
2021/12/24 12:37:13;;;;;;;;;;;5.90;99.90;;;;;;5117951;28;20043;-73
2021/12/24 12:39:38;;;;;;;5.50;4.10;;;5.90;99.90;;;;;;5116892;28;19924;-64
2021/12/24 12:42:04;;;;;;;5.85;4.25;;;6.40;99.90;;;;;;5116807;28;20128;-72
2021/12/24 12:44:33;;;;;;;6.57;5.05;;;6.10;99.90;;;;;;5117096;28;20543;-73
2021/12/24 12:47:10;;;;;;;6.38;4.25;;;6.30;99.90;;;;;;5098293;28;20035;-74
2021/12/24 12:49:36;;;;;;;9.05;5.53;;;5.90;99.90;;;;;;5098560;28;20051;-75
2021/12/24 12:52:17;;;;;;;5.78;3.65;;;6.00;99.90;;;;;;5098671;28;20044;-73
2021/12/24 12:54:44;;;;;;;5.75;4.32;;;6.00;99.90;;;;;;5116713;28;20058;-73
2021/12/24 12:57:22;;;;;;;4.88;3.35;;;6.50;99.90;;;;;;5116581;28;20047;-73
2021/12/24 13:00:07;;;;;;;4.80;3.25;;;5.90;99.90;;;;;;5098852;28;20055;-71
2021/12/24 13:02:59;;;;;;;5.28;3.20;;;5.80;99.90;;;;;;5102114;28;20547;-71
2021/12/24 13:05:55;;;;;;;7.38;4.00;;;5.80;99.90;;;;;;5116304;28;20074;-70
2021/12/24 13:08:24;;;;;;;5.05;2.85;;;6.20;99.90;;;;;;5116258;28;20092;-71
2021/12/24 13:11:04;;;;;;;4.72;2.80;;;6.40;99.90;;;;;;5116280;28;20123;-71
2021/12/24 13:13:32;;;;;;;4.72;3.00;;;6.00;99.90;;;;;;5113516;28;20090;-70
2021/12/24 13:15:57;;;;;;;4.18;2.78;;;6.50;99.90;;;;;;5094820;28;20047;-70
2021/12/24 13:18:34;;;;;;;4.00;2.90;;;6.30;99.90;;;;;;5114105;28;20495;-70
2021/12/24 13:23:37;;;;;;;6.40;3.45;;;6.60;99.90;;;;;;5113381;28;20433;-74
2021/12/24 13:26:17;;;;;;;7.55;4.05;;;6.20;99.90;;;;;;5113247;28;20143;-71
2021/12/24 13:28:58;;;;;;;5.43;3.20;;;6.00;99.90;;;;;;5114563;28;20047;-71
2021/12/24 13:31:25;;;;;;;5.18;3.10;;;5.80;99.90;;;;;;5113784;28;20040;-71
2021/12/24 13:33:51;;;;;;;5.10;2.85;;;6.80;99.90;;;;;;5114189;28;20079;-72
2021/12/24 13:36:24;;;;;;;5.50;3.35;;;6.10;99.90;;;;;;5115823;28;20086;-72
2021/12/24 13:38:50;;;;;;;;;;;6.20;99.90;;;;;;5116193;28;20048;-71
2021/12/24 13:41:16;;;;;;;3.90;2.50;;;6.60;99.90;;;;;;5115517;28;19987;-72
2021/12/24 13:43:42;;;;;;;3.40;2.47;;;7.20;99.90;;;;;;5098113;28;20542;-72
2021/12/24 13:46:09;;;;;;;4.85;3.28;;;6.80;99.90;;;;;;5097565;28;20472;-71
2021/12/24 13:49:35;;;;;;;4.07;3.00;;;6.60;99.90;;;;;;5097388;28;20039;-72
2021/12/24 13:56:41;;;;;;;1.73;1.20;;;6.40;99.90;;;;;;5113395;28;20130;-71
2021/12/24 13:59:09;;;;;;;2.22;1.60;;;6.20;99.90;;;;;;5112613;28;20126;-70
2021/12/24 14:01:35;;;;;;;1.95;1.50;;;6.10;99.90;;;;;;5112986;28;20059;-69
2021/12/24 14:04:04;;;;;;;2.75;1.30;;;6.10;99.90;;;;;;5112428;28;20106;-70
2021/12/24 14:06:35;;;;;;;2.20;1.60;;;6.60;99.90;;;;;;5112379;28;20069;-69
2021/12/24 14:09:15;;;;;;;2.13;1.30;;;6.80;99.90;;;;;;5112803;28;20055;-69
2021/12/24 14:11:43;;;;;;;2.30;1.88;;;5.90;99.90;;;;;;5113696;28;20047;-71
2021/12/24 14:14:11;;;;;;;4.28;2.20;;;6.40;99.90;;;;;;5096863;28;20130;-71
2021/12/24 14:19:28;;;;;;;2.97;1.52;;;6.50;99.90;;;;;;5115519;28;20059;-71
2021/12/24 14:22:05;;;;;;;2.50;1.77;;;6.60;99.90;;;;;;5096658;28;20089;-70
2021/12/24 14:24:35;;;;;;;2.85;1.40;;;6.40;99.90;;;;;;5096523;28;20491;-71
2021/12/24 14:27:07;;;;;;;2.10;1.58;;;7.00;99.90;;;;;;5114553;28;20055;-71
2021/12/24 14:29:42;;;;;;;3.05;1.67;;;6.10;99.90;;;;;;5115377;28;20087;-71
2021/12/24 14:32:27;;;;;;;2.88;1.73;;;6.20;99.90;;;;;;5115041;28;20196;-70
2021/12/24 14:34:55;;;;;;;3.15;2.83;;;6.40;99.90;;;;;;5114706;28;20051;-71
2021/12/24 14:37:35;;;;;;;5.07;2.38;;;6.50;99.90;;;;;;5114638;28;20035;-71
2021/12/24 14:40:05;;;;;;;3.75;1.85;;;6.20;99.90;;;;;;5114658;28;20047;-71
2021/12/24 14:42:47;;;;;;;2.72;1.65;;;6.10;99.90;;;;;;5115070;28;20058;-71
2021/12/24 14:45:16;;;;;;;5.88;2.30;;;6.10;99.90;;;;;;5114777;28;20070;-71
2021/12/24 14:47:53;;;;;;;2.67;2.00;;;6.10;99.90;;;;;;5114368;28;20053;-72
2021/12/24 14:50:19;;;;;;;8.52;4.35;;;6.30;99.90;;;;;;5115130;28;20047;-71
2021/12/24 14:52:46;;;;;;;4.10;2.78;;;6.70;99.90;;;;;;5114393;28;20388;-72
2021/12/24 14:55:23;;;;;;;2.88;1.92;;;6.40;99.90;;;;;;5114384;28;20056;-72
2021/12/24 14:57:58;;;;;;;4.47;2.30;;;6.10;99.90;;;;;;5097249;28;20157;-72
2021/12/24 15:00:28;;;;;;;4.18;2.03;;;6.80;99.90;;;;;;5114912;28;20050;-72
2021/12/24 15:02:54;;;;;;;4.13;2.90;;;6.30;99.90;;;;;;5096684;28;20441;-73